Campanya Meteocatpedra
Centenari de l'SMC: 100 anys mirant el cel

Dades de l'estació automàtica Gandesa

?
?

Resum diari

22:30 TU
Dades diàries de l'estació meteorològica
Temperatura mitjana 18.1 °C
Temperatura màxima 23.1 °C 14:12 TU
Temperatura mínima 14.6 °C 4:32 TU
Humitat relativa mitjana 53%
Precipitació acumulada 0.0 mm
Ratxa màxima del vent (2 m) 37.1 km/h - 321º 16:54 TU
Irradiació solar global 20.4 MJ/m2

El tram horari està expressat en Temps Universal (TU). Cal sumar una hora en horari d'hivern i dues en horari d'estiu per passar a l'hora oficial.

Gandesa

Metadades estació meteorològica
Municipi Gandesa
Comarca Terra Alta
Altitud 349 m
Data alta 30.11.2011
Estat actual Operativa
Dades de període
Període
TU
TM
°C
TX
°C
TN
°C
HRM
%
PPT
mm
VVM (2 m)
km/h
DVM (2 m)
graus
VVX (2 m)
km/h
RS
W/m2
00:00 - 00:30 16.1 16.3 15.9 63 0.0 5.4 235 11.2 0
00:30 - 01:00 16.1 16.2 15.9 63 0.0 5.8 242 15.5 0
01:00 - 01:30 16.0 16.0 15.8 62 0.0 5.4 245 13.7 0
01:30 - 02:00 15.8 16.1 15.5 62 0.0 5.0 237 13.3 0
02:00 - 02:30 15.3 15.5 14.9 64 0.0 5.8 241 15.8 0
02:30 - 03:00 15.4 15.6 15.3 64 0.0 6.8 256 15.1 0
03:00 - 03:30 15.1 15.5 14.8 64 0.0 5.8 253 15.5 0
03:30 - 04:00 14.9 15.0 14.7 65 0.0 5.8 244 14.4 0
04:00 - 04:30 14.6 14.7 14.6 67 0.0 5.8 238 11.9 0
04:30 - 05:00 14.9 15.1 14.6 67 0.0 6.8 251 15.5 0
05:00 - 05:30 15.1 15.2 14.9 66 0.0 7.6 261 18.4 0
05:30 - 06:00 14.9 15.0 14.8 68 0.0 8.3 255 18.0 5
06:00 - 06:30 15.2 15.6 14.9 68 0.0 7.2 255 17.6 60
06:30 - 07:00 15.6 15.7 15.5 68 0.0 8.3 253 20.2 70
07:00 - 07:30 15.8 15.9 15.7 68 0.0 7.9 256 20.9 104
07:30 - 08:00 16.6 17.3 15.8 66 0.0 8.6 267 27.0 272
08:00 - 08:30 17.8 18.3 17.3 61 0.0 11.2 280 21.6 435
08:30 - 09:00 18.4 18.7 18.3 58 0.0 13.7 290 26.6 507
09:00 - 09:30 19.2 19.6 18.7 55 0.0 15.1 295 32.8 600
09:30 - 10:00 19.7 20.1 19.2 52 0.0 16.9 295 34.9 669
10:00 - 10:30 20.2 20.6 19.8 50 0.0 16.2 288 31.7 722
10:30 - 11:00 20.8 21.2 20.5 48 0.0 15.1 306 34.2 766
11:00 - 11:30 21.2 21.6 21.0 45 0.0 14.4 288 27.0 736
11:30 - 12:00 22.0 22.3 21.3 41 0.0 13.7 293 32.4 807
12:00 - 12:30 22.2 22.5 21.7 39 0.0 14.8 285 32.8 801
12:30 - 13:00 22.5 23.0 22.1 39 0.0 15.1 292 30.6 782
13:00 - 13:30 22.3 22.7 22.0 39 0.0 16.2 291 32.0 745
13:30 - 14:00 22.5 22.8 22.2 38 0.0 13.7 298 29.2 696
14:00 - 14:30 22.8 23.1 22.4 37 0.0 13.0 283 33.1 634
14:30 - 15:00 22.6 23.1 22.4 35 0.0 12.6 284 27.7 561
15:00 - 15:30 22.5 23.1 22.1 32 0.0 14.4 289 31.0 477
15:30 - 16:00 22.2 22.5 21.7 31 0.0 15.1 294 31.7 385
16:00 - 16:30 21.6 21.9 21.4 34 0.0 16.6 304 35.6 284
16:30 - 17:00 21.1 21.4 20.7 37 0.0 18.4 301 37.1 182
17:00 - 17:30 20.3 20.7 19.9 39 0.0 15.8 301 34.6 87
17:30 - 18:00 19.4 19.9 19.0 43 0.0 13.3 300 34.6 14
18:00 - 18:30 18.6 19.0 18.2 45 0.0 10.4 289 24.5 0
18:30 - 19:00 17.9 18.2 17.6 47 0.0 8.6 291 21.6 0
19:00 - 19:30 17.5 17.6 17.2 49 0.0 10.8 299 28.4 0
19:30 - 20:00 17.1 17.3 16.9 51 0.0 10.1 287 27.0 0
20:00 - 20:30 16.7 16.9 16.5 54 0.0 5.8 245 23.8 0
20:30 - 21:00 16.2 16.6 16.0 57 0.0 7.9 275 19.4 0
21:00 - 21:30 15.7 16.0 15.4 60 0.0 8.6 272 20.2 0
21:30 - 22:00 15.2 15.4 15.0 62 0.0 9.4 273 20.2 0
22:00 - 22:30 14.8 15.0 14.7 63 0.0 8.3 266 23.4 0
22:30 - 23:00 14.7 14.8 14.7 62 0.0 10.1 270 27.0 0

Les dades en taronja només han passat un control de qualitat automàtic. Resta pendent la seva validació definitiva.